Time;durP1;ratioP1;P1;durP2;ratioP2;P2;SDS_P1;SDS_P2;PMS_P1;PMS_P2;Temp;Humidity;BMP_temperature;BMP_pressure;BME280_temperature;BME280_humidity;BME280_pressure;Samples;Min_cycle;Max_cycle;Signal;HPM_P1;HPM_P2
2022/05/14 00:00:51;;;;;;;3.42;3.13;;;;;;;18.95;60.70;98071.84;6270090;22;20159;-56
2022/05/14 00:03:17;;;;;;;3.22;3.03;;;;;;;19.00;61.06;98072.19;6262665;22;20151;-56
2022/05/14 00:05:43;;;;;;;5.35;3.45;;;;;;;18.98;61.10;98074.13;6257362;22;20616;-56
2022/05/14 00:08:10;;;;;;;3.83;3.47;;;;;;;19.01;60.87;98076.44;6259828;22;20148;-56
2022/05/14 00:13:03;;;;;;;6.28;3.33;;;;;;;18.97;62.15;98072.50;6270014;22;20563;-56
2022/05/14 00:13:22;;;;;;;3.22;3.00;;;;;;;18.76;62.67;98066.94;6269877;22;20140;-56
2022/05/14 00:15:47;;;;;;;4.55;3.70;;;;;;;18.79;61.33;98066.59;6269552;22;20182;-56
2022/05/14 00:18:13;;;;;;;4.03;3.63;;;;;;;18.81;60.81;98068.09;6270030;22;20199;-56
2022/05/14 00:20:39;;;;;;;3.95;3.15;;;;;;;18.84;60.43;98070.34;6268240;22;20190;-56
2022/05/14 00:23:06;;;;;;;5.78;3.60;;;;;;;18.83;60.93;98070.53;6269823;22;20155;-57
2022/05/14 00:25:32;;;;;;;4.18;3.50;;;;;;;18.79;61.13;98062.19;6255259;22;20594;-56
2022/05/14 00:27:58;;;;;;;6.22;3.33;;;;;;;18.76;61.04;98070.38;6257772;22;20140;-56
2022/05/14 00:30:26;;;;;;;3.88;3.17;;;;;;;18.72;62.29;98073.50;6265456;22;20155;-56
2022/05/14 00:32:52;;;;;;;4.50;3.45;;;;;;;18.75;62.88;98068.75;6269678;22;20155;-56
2022/05/14 00:35:19;;;;;;;5.95;3.97;;;;;;;18.72;64.47;98063.81;6270045;22;20536;-56
2022/05/14 00:37:45;;;;;;;5.03;4.13;;;;;;;18.58;65.08;98061.03;6269711;22;20206;-56
2022/05/14 00:40:17;;;;;;;4.55;3.38;;;;;;;18.35;65.84;98066.09;6269545;22;20144;-56
2022/05/14 00:42:42;;;;;;;7.40;3.75;;;;;;;18.50;63.97;98059.25;6269729;22;20629;-56
2022/05/14 00:45:11;;;;;;;4.95;3.70;;;;;;;18.62;62.09;98059.72;6263696;22;20152;-56
2022/05/14 00:47:39;;;;;;;3.45;3.20;;;;;;;18.64;62.08;98063.00;6256722;22;20151;-55
2022/05/14 00:50:18;;;;;;;3.78;3.00;;;;;;;18.65;62.19;98064.66;6258529;22;20493;-56
2022/05/14 00:52:44;;;;;;;3.45;3.15;;;;;;;18.66;62.08;98053.97;6270114;22;20140;-56
2022/05/14 00:55:10;;;;;;;3.50;3.30;;;;;;;18.71;61.82;98056.13;6269759;22;20156;-56
2022/05/14 00:57:38;;;;;;;4.65;3.53;;;;;;;18.59;62.82;98057.44;6269367;22;20195;-56
2022/05/14 01:00:12;;;;;;;3.55;3.13;;;;;;;18.63;62.72;98053.50;6269791;22;20151;-56
2022/05/14 01:02:38;;;;;;;5.10;3.60;;;;;;;18.68;62.04;98054.66;6269763;22;20480;-56
2022/05/14 01:05:04;;;;;;;4.22;3.92;;;;;;;18.66;62.56;98058.44;6269546;22;20598;-56
2022/05/14 01:07:31;;;;;;;3.85;3.50;;;;;;;18.61;62.62;98052.84;6256258;22;20614;-57
2022/05/14 01:10:01;;;;;;;3.83;3.25;;;;;;;18.58;62.27;98054.00;6257565;22;20156;-56
2022/05/14 01:12:30;;;;;;;4.20;3.13;;;;;;;18.56;62.15;98065.63;6263851;22;20231;-56
2022/05/14 01:15:07;;;;;;;3.35;3.03;;;;;;;18.56;61.88;98068.25;6269465;22;20581;-56
2022/05/14 01:17:33;;;;;;;4.00;3.50;;;;;;;18.61;61.84;98058.94;6269606;22;20309;-56
2022/05/14 01:19:58;;;;;;;5.40;3.13;;;;;;;18.61;61.54;98060.72;6269181;22;20175;-56
2022/05/14 01:22:45;;;;;;;4.00;3.55;;;;;;;18.61;61.87;98048.44;6269490;22;20154;-56
2022/05/14 01:28:02;;;;;;;5.80;3.67;;;;;;;18.33;63.10;98047.09;6258815;22;20549;-56
2022/05/14 01:30:29;;;;;;;3.35;3.03;;;;;;;18.31;63.31;98042.97;6256669;22;20190;-56
2022/05/14 01:33:07;;;;;;;3.88;3.60;;;;;;;18.19;64.14;98050.31;6262051;22;20503;-56
2022/05/14 01:35:37;;;;;;;3.88;3.47;;;;;;;18.10;64.97;98051.28;6269042;22;20159;-56
2022/05/14 01:38:03;;;;;;;4.22;3.65;;;;;;;18.07;64.57;98045.56;6269430;22;20576;-56
2022/05/14 01:40:30;;;;;;;3.85;3.47;;;;;;;18.05;65.17;98052.72;6269230;22;20147;-56
2022/05/14 01:42:55;;;;;;;3.95;3.60;;;;;;;17.98;65.60;98049.13;6269235;22;20154;-56
2022/05/14 01:45:21;;;;;;;4.78;3.70;;;;;;;17.97;65.64;98060.56;6269347;22;20496;-56
2022/05/14 01:47:46;;;;;;;4.22;3.50;;;;;;;17.90;66.09;98054.34;6266550;22;20148;-56
2022/05/14 01:50:12;;;;;;;6.93;4.30;;;;;;;17.86;66.62;98042.53;6255408;22;20148;-56
2022/05/14 01:52:37;;;;;;;4.28;3.88;;;;;;;17.78;66.87;98048.56;6257722;22;20147;-56
2022/05/14 01:55:03;;;;;;;4.38;3.50;;;;;;;17.74;67.22;98051.66;6266504;22;20144;-56
2022/05/14 01:57:29;;;;;;;4.03;3.70;;;;;;;17.61;67.93;98046.06;6269140;22;20180;-56
2022/05/14 01:59:55;;;;;;;5.13;3.58;;;;;;;17.54;68.06;98043.25;6269048;22;20148;-56
2022/05/14 02:02:21;;;;;;;5.55;3.88;;;;;;;17.55;67.33;98051.91;6269264;22;20151;-56
2022/05/14 02:04:46;;;;;;;4.25;3.42;;;;;;;17.77;66.38;98046.13;6269359;22;20218;-56
2022/05/14 02:07:11;;;;;;;3.05;2.85;;;;;;;17.93;65.96;98046.16;6269098;22;20219;-56
2022/05/14 02:09:37;;;;;;;3.50;3.25;;;;;;;17.99;65.54;98040.28;6260987;22;20148;-56
2022/05/14 02:12:03;;;;;;;5.68;3.60;;;;;;;18.01;65.42;98038.34;6256137;22;20144;-56
2022/05/14 02:14:28;;;;;;;4.68;4.22;;;;;;;17.95;65.48;98036.38;6259337;22;20144;-56
2022/05/14 02:16:54;;;;;;;3.95;3.65;;;;;;;17.86;66.39;98037.31;6268791;22;20561;-56
2022/05/14 02:19:19;;;;;;;6.30;3.80;;;;;;;18.01;65.73;98035.72;6268940;22;20162;-56
2022/05/14 02:21:45;;;;;;;4.07;3.78;;;;;;;17.97;65.70;98037.00;6269740;22;20594;-56
2022/05/14 02:24:10;;;;;;;3.90;3.50;;;;;;;18.09;65.28;98033.09;6271107;22;20231;-56
2022/05/14 02:26:36;;;;;;;6.03;3.45;;;;;;;18.06;65.31;98029.00;6269240;22;20152;-60
2022/05/14 02:29:01;;;;;;;3.60;3.30;;;;;;;18.06;65.20;98038.66;6270899;22;20148;-56
2022/05/14 02:31:27;;;;;;;3.90;3.60;;;;;;;18.11;64.85;98052.09;6258301;22;20156;-57
2022/05/14 02:33:53;;;;;;;3.35;3.05;;;;;;;18.10;64.66;98042.59;6256684;22;20151;-56
2022/05/14 02:36:19;;;;;;;5.43;3.70;;;;;;;18.04;64.88;98045.84;6264685;22;20179;-56
2022/05/14 02:38:45;;;;;;;3.33;3.13;;;;;;;18.00;65.44;98044.53;6270871;22;20156;-56
2022/05/14 02:41:12;;;;;;;4.15;3.30;;;;;;;17.98;65.24;98051.75;6269104;22;20151;-56
2022/05/14 02:43:37;;;;;;;3.75;3.50;;;;;;;17.92;65.01;98057.59;6270927;22;20196;-56
2022/05/14 02:46:04;;;;;;;3.20;2.72;;;;;;;18.01;64.38;98061.91;6271130;22;20143;-56
2022/05/14 02:48:31;;;;;;;3.90;3.25;;;;;;;18.10;63.75;98053.06;6270567;22;20148;-56
2022/05/14 02:50:57;;;;;;;6.03;3.38;;;;;;;18.29;63.35;98044.91;6266437;22;20158;-56
2022/05/14 02:53:22;;;;;;;3.85;3.55;;;;;;;18.32;63.67;98042.03;6257382;22;20261;-56
2022/05/14 02:55:48;;;;;;;4.78;3.45;;;;;;;18.14;64.20;98051.78;6259148;22;20657;-56
2022/05/14 02:59:06;;;;;;;3.63;3.33;;;;;;;17.97;65.01;98045.69;6267925;22;20158;-56
2022/05/14 03:00:59;;;;;;;7.25;3.53;;;;;;;17.96;65.14;98035.38;6270473;22;20146;-56
2022/05/14 03:03:24;;;;;;;4.47;3.35;;;;;;;17.87;65.42;98037.16;6270671;22;20148;-56
2022/05/14 03:05:49;;;;;;;5.32;3.70;;;;;;;17.83;65.39;98029.78;6270739;22;20509;-56
2022/05/14 03:08:15;;;;;;;4.60;3.22;;;;;;;17.80;65.72;98030.09;6270813;22;20565;-56
2022/05/14 03:10:40;;;;;;;4.47;3.95;;;;;;;17.82;65.87;98030.75;6270565;22;20144;-56
2022/05/14 03:13:05;;;;;;;3.63;3.33;;;;;;;17.80;66.00;98024.84;6260295;22;20238;-56
2022/05/14 03:15:31;;;;;;;4.47;3.15;;;;;;;17.88;65.71;98023.09;6258030;22;20464;-56
2022/05/14 03:17:56;;;;;;;4.72;3.60;;;;;;;17.81;66.01;98027.31;6262776;22;20184;-57
2022/05/14 03:20:22;;;;;;;4.53;3.42;;;;;;;17.95;65.45;98028.50;6270448;22;20239;-56
2022/05/14 03:22:47;;;;;;;6.57;3.35;;;;;;;17.98;65.02;98020.31;6270338;22;20152;-56
2022/05/14 03:25:12;;;;;;;3.63;3.33;;;;;;;17.98;65.23;98025.56;6270388;22;20155;-56
2022/05/14 03:27:38;;;;;;;3.75;3.45;;;;;;;17.91;65.66;98024.56;6270578;22;20148;-56
2022/05/14 03:30:04;;;;;;;3.60;3.33;;;;;;;17.98;65.62;98022.94;6270652;22;20596;-56
2022/05/14 03:32:29;;;;;;;4.13;3.80;;;;;;;17.87;65.82;98018.00;6268638;22;20239;-56
2022/05/14 03:34:55;;;;;;;4.07;3.72;;;;;;;17.86;65.74;98026.84;6256362;22;20201;-56
2022/05/14 03:37:23;;;;;;;3.67;3.38;;;;;;;18.05;65.06;98034.41;6258153;22;20172;-56
2022/05/14 03:39:49;;;;;;;3.78;3.38;;;;;;;18.04;65.16;98038.84;6266039;22;20154;-56
2022/05/14 03:42:14;;;;;;;3.60;3.40;;;;;;;18.04;64.80;98030.16;6270013;22;20578;-56
2022/05/14 03:44:39;;;;;;;3.58;3.22;;;;;;;18.09;64.85;98038.34;6268500;22;20167;-56
2022/05/14 03:47:05;;;;;;;4.25;3.85;;;;;;;18.03;65.21;98045.06;6270415;22;20250;-56
2022/05/14 03:49:30;;;;;;;5.35;3.47;;;;;;;18.06;64.79;98039.47;6270497;22;20677;-56
2022/05/14 03:51:56;;;;;;;5.00;3.60;;;;;;;18.03;64.75;98046.84;6270202;22;20148;-56
2022/05/14 03:54:21;;;;;;;4.35;3.70;;;;;;;18.05;64.94;98042.25;6265369;22;20148;-56
2022/05/14 03:56:47;;;;;;;4.75;3.50;;;;;;;18.04;64.90;98051.09;6256782;22;20171;-56
2022/05/14 03:59:12;;;;;;;4.53;3.30;;;;;;;18.17;65.67;98057.50;6258671;22;20148;-56
2022/05/14 04:01:38;;;;;;;4.22;3.83;;;;;;;18.14;67.32;98072.72;6268625;22;20613;-56
2022/05/14 04:04:04;;;;;;;7.43;4.18;;;;;;;18.33;68.83;98077.72;6270051;22;20500;-56
2022/05/14 04:06:30;;;;;;;4.38;3.97;;;;;;;18.37;67.56;98081.66;6270196;22;20147;-56
2022/05/14 04:08:56;;;;;;;6.25;3.80;;;;;;;18.28;67.38;98074.72;6269969;22;20151;-56
2022/05/14 04:11:21;;;;;;;4.85;4.45;;;;;;;18.30;67.56;98078.00;6270237;22;20152;-56
2022/05/14 04:13:47;;;;;;;3.83;3.53;;;;;;;18.46;66.05;98072.81;6270229;22;20148;-56
2022/05/14 04:16:15;;;;;;;3.88;3.67;;;;;;;18.54;64.75;98075.44;6257918;22;20648;-56
2022/05/14 04:18:41;;;;;;;5.65;4.20;;;;;;;18.41;67.23;98080.34;6257274;22;20579;-56
2022/05/14 04:21:07;;;;;;;4.45;4.03;;;;;;;18.43;66.63;98078.38;6262500;22;20239;-56
2022/05/14 04:23:33;;;;;;;5.28;4.78;;;;;;;18.53;66.79;98079.06;6269966;22;20274;-56
2022/05/14 04:25:59;;;;;;;10.15;4.45;;;;;;;18.76;67.29;98085.31;6270192;22;20155;-56
2022/05/14 04:28:26;;;;;;;6.25;4.75;;;;;;;18.97;68.08;98088.22;6269718;22;20148;-56
2022/05/14 04:30:52;;;;;;;5.82;4.93;;;;;;;19.06;66.71;98087.25;6269843;22;20179;-56
2022/05/14 04:33:18;;;;;;;5.43;4.85;;;;;;;19.03;66.09;98082.31;6269875;22;20144;-56
2022/05/14 04:35:44;;;;;;;4.57;4.18;;;;;;;19.00;64.65;98078.22;6269220;22;20206;-56
2022/05/14 04:38:10;;;;;;;5.18;4.57;;;;;;;18.95;65.33;98074.47;6255694;22;20151;-57
2022/05/14 04:40:36;;;;;;;4.72;3.63;;;;;;;18.88;64.60;98074.31;6257700;22;20150;-56
2022/05/14 04:43:04;;;;;;;5.95;4.28;;;;;;;18.81;67.19;98082.97;6265638;22;20155;-56
2022/05/14 04:45:30;;;;;;;10.18;6.20;;;;;;;19.09;67.49;98092.97;6269442;22;20152;-56
2022/05/14 04:47:55;;;;;;;8.75;5.63;;;;;;;19.17;67.02;98086.91;6269779;22;20151;-57
2022/05/14 04:50:21;;;;;;;9.20;6.28;;;;;;;19.30;66.26;98085.41;6269441;22;20152;-57
2022/05/14 04:52:46;;;;;;;6.57;5.50;;;;;;;19.42;66.52;98093.78;6269688;22;20158;-57
2022/05/14 04:55:13;;;;;;;6.80;5.35;;;;;;;19.62;65.31;98087.13;6269580;22;20150;-57
2022/05/14 04:57:43;;;;;;;8.27;5.32;;;;;;;19.76;63.01;98089.09;6263990;22;20498;-57
2022/05/14 05:00:10;;;;;;;10.02;5.30;;;;;;;19.71;62.77;98094.81;6256206;22;20159;-57
2022/05/14 05:05:20;;;;;;;6.90;6.15;;;;;;;19.82;63.83;98104.97;6269489;22;20147;-55
2022/05/14 05:07:47;;;;;;;7.85;5.93;;;;;;;19.95;63.82;98109.69;6269552;22;20144;-57
2022/05/14 05:10:13;;;;;;;9.75;6.07;;;;;;;20.13;63.19;98115.53;6269331;22;20617;-56
2022/05/14 05:12:38;;;;;;;6.43;4.80;;;;;;;20.10;60.84;98108.00;6267759;22;20147;-56
2022/05/14 05:15:04;;;;;;;7.25;5.35;;;;;;;20.19;61.49;98114.84;6269466;22;20467;-56
2022/05/14 05:17:30;;;;;;;7.28;5.82;;;;;;;20.36;61.17;98114.59;6269035;22;20238;-56
2022/05/14 05:19:55;;;;;;;6.72;6.03;;;;;;;20.51;60.99;98112.03;6256440;22;20175;-56
2022/05/14 05:22:21;;;;;;;6.85;5.65;;;;;;;20.61;60.73;98120.50;6257391;22;20479;-56
2022/05/14 05:24:46;;;;;;;9.05;6.03;;;;;;;20.64;60.55;98123.59;6263689;22;20148;-56
2022/05/14 05:27:12;;;;;;;8.15;5.03;;;;;;;20.51;60.26;98119.94;6269356;22;20143;-56
2022/05/14 05:29:37;;;;;;;9.30;5.22;;;;;;;20.64;60.05;98122.81;6269292;22;20155;-56
2022/05/14 05:32:03;;;;;;;5.88;4.25;;;;;;;20.79;58.52;98118.41;6269668;22;20152;-56
2022/05/14 05:34:29;;;;;;;4.10;3.70;;;;;;;20.85;57.73;98109.81;6269209;22;20160;-56
2022/05/14 05:36:54;;;;;;;5.25;3.50;;;;;;;20.75;57.96;98109.25;6269284;22;20168;-56
2022/05/14 05:39:20;;;;;;;3.75;3.13;;;;;;;20.71;56.91;98113.22;6264500;22;20238;-56
2022/05/14 05:41:45;;;;;;;3.35;3.05;;;;;;;20.64;57.73;98099.13;6255444;22;20452;-56
2022/05/14 05:44:12;;;;;;;2.95;2.63;;;;;;;20.48;57.86;98101.88;6257746;22;20170;-56
2022/05/14 05:46:37;;;;;;;3.40;3.20;;;;;;;20.53;58.17;98094.28;6267033;22;20553;-56
2022/05/14 05:49:04;;;;;;;3.67;3.38;;;;;;;20.51;57.82;98091.81;6269070;22;20186;-57
2022/05/14 05:51:31;;;;;;;3.35;3.13;;;;;;;20.54;57.98;98096.75;6269322;22;20151;-56
2022/05/14 05:56:51;;;;;;;4.05;3.42;;;;;;;20.79;57.63;98094.72;6270054;22;20244;-57
2022/05/14 05:59:18;;;;;;;3.85;3.13;;;;;;;20.78;57.52;98091.31;6271449;22;20136;-57
2022/05/14 06:01:44;;;;;;;3.58;3.28;;;;;;;20.89;57.41;98100.59;6259747;22;20147;-57
2022/05/14 06:04:10;;;;;;;3.75;3.35;;;;;;;20.97;57.10;98095.31;6258827;22;20179;-57
2022/05/14 06:06:41;;;;;;;3.95;3.42;;;;;;;21.16;55.66;98100.84;6264728;22;20172;-58
2022/05/14 06:09:06;;;;;;;6.53;3.85;;;;;;;21.05;56.15;98114.44;6271264;22;20596;-57
2022/05/14 06:11:32;;;;;;;3.35;3.13;;;;;;;21.11;56.02;98112.94;6271126;22;20144;-58
2022/05/14 06:13:58;;;;;;;3.50;3.20;;;;;;;21.20;55.21;98117.09;6271140;22;20282;-57
2022/05/14 06:16:24;;;;;;;3.75;3.55;;;;;;;21.32;54.71;98118.34;6268898;22;20262;-57
2022/05/14 06:18:49;;;;;;;4.78;3.20;;;;;;;21.35;54.71;98115.31;6271222;22;20594;-57
2022/05/14 06:21:15;;;;;;;3.30;3.00;;;;;;;21.46;54.83;98120.16;6268612;22;20410;-55
2022/05/14 06:23:41;;;;;;;3.65;3.13;;;;;;;21.65;54.05;98122.25;6257386;22;20680;-55
2022/05/14 06:26:08;;;;;;;5.95;3.60;;;;;;;21.72;54.01;98112.66;6259280;22;20628;-55
2022/05/14 06:28:34;;;;;;;5.90;3.00;;;;;;;21.91;53.70;98122.66;6268421;22;20274;-55
2022/05/14 06:31:00;;;;;;;5.50;3.30;;;;;;;22.05;53.17;98121.81;6269186;22;20512;-55
2022/05/14 06:33:26;;;;;;;4.72;3.28;;;;;;;22.14;52.97;98124.16;6270950;22;20601;-58
2022/05/14 06:35:53;;;;;;;4.85;3.33;;;;;;;22.27;52.46;98124.31;6270857;22;20158;-57
2022/05/14 06:38:19;;;;;;;3.60;3.35;;;;;;;22.39;52.91;98122.88;6270946;22;20597;-57
2022/05/14 06:40:45;;;;;;;4.03;3.53;;;;;;;22.61;52.64;98121.09;6269277;22;20151;-57
2022/05/14 06:43:14;;;;;;;3.85;3.30;;;;;;;22.80;52.44;98133.66;6262737;22;20156;-55
2022/05/14 06:45:39;;;;;;;3.25;3.05;;;;;;;22.84;51.41;98137.56;6258034;22;20262;-56
2022/05/14 06:48:05;;;;;;;3.83;3.47;;;;;;;22.87;51.62;98119.53;6261010;22;20597;-56
2022/05/14 06:50:37;;;;;;;3.78;3.33;;;;;;;23.03;51.25;98123.72;6270500;22;20155;-56
2022/05/14 06:53:04;;;;;;;3.85;3.55;;;;;;;23.05;51.13;98129.63;6268976;22;20186;-56
2022/05/14 06:55:36;;;;;;;3.92;3.58;;;;;;;23.23;51.21;98132.66;6270680;22;20152;-55
2022/05/14 06:58:02;;;;;;;5.20;3.60;;;;;;;23.37;51.21;98134.41;6270475;22;20169;-56
2022/05/14 07:00:28;;;;;;;6.63;4.70;;;;;;;23.50;51.29;98135.34;6270689;22;20175;-56
2022/05/14 07:06:37;;;;;;;7.57;4.30;;;;;;;23.62;51.58;98130.31;6270632;22;20516;-55
2022/05/14 07:08:24;;;;;;;6.35;4.60;;;;;;;23.95;51.56;98144.59;6258807;22;20140;-55
2022/05/14 07:10:50;;;;;;;9.30;4.63;;;;;;;24.06;50.74;98151.97;6268650;22;20148;-56
2022/05/14 07:13:15;;;;;;;9.20;4.63;;;;;;;24.13;50.62;98158.09;6270491;22;20205;-56
2022/05/14 07:15:40;;;;;;;9.98;5.35;;;;;;;24.20;50.92;98159.75;6270453;22;20201;-56
2022/05/14 07:18:06;;;;;;;8.73;4.60;;;;;;;24.26;50.84;98164.28;6270483;22;20305;-56
2022/05/14 07:20:31;;;;;;;7.85;4.75;;;;;;;24.29;51.14;98159.41;6270563;22;20565;-56
2022/05/14 07:22:57;;;;;;;11.70;5.13;;;;;;;24.38;51.01;98160.03;6270614;22;20144;-56
2022/05/14 07:25:23;;;;;;;14.32;5.13;;;;;;;24.37;51.51;98148.63;6261877;22;20645;-57
2022/05/14 07:27:48;;;;;;;18.98;5.28;;;;;;;24.47;52.23;98161.50;6257461;22;20151;-56
2022/05/14 07:30:14;;;;;;;12.52;5.38;;;;;;;24.55;52.01;98170.06;6261549;22;20160;-57
2022/05/14 07:32:39;;;;;;;8.50;5.00;;;;;;;24.62;51.11;98170.94;6270258;22;20247;-56
2022/05/14 07:35:05;;;;;;;7.30;4.80;;;;;;;24.63;50.63;98175.22;6270400;22;20155;-57
2022/05/14 07:37:34;;;;;;;6.03;5.43;;;;;;;24.69;51.70;98178.91;6268467;22;20184;-57
2022/05/14 07:40:06;;;;;;;10.02;5.07;;;;;;;24.74;50.51;98190.50;6270160;22;20148;-57
2022/05/14 07:42:41;;;;;;;6.50;5.10;;;;;;;24.62;50.70;98181.50;6268860;22;20569;-57
2022/05/14 07:45:09;;;;;;;7.13;5.53;;;;;;;24.67;50.35;98180.94;6268534;22;20147;-57
2022/05/14 07:47:35;;;;;;;10.95;5.93;;;;;;;24.59;51.04;98186.38;6256270;22;20171;-57
2022/05/14 07:50:03;;;;;;;13.35;5.53;;;;;;;24.50;51.19;98188.34;6258362;22;20175;-57
2022/05/14 07:52:29;;;;;;;10.95;5.82;;;;;;;24.60;51.61;98188.84;6263849;22;20152;-57
2022/05/14 07:54:54;;;;;;;8.45;5.97;;;;;;;24.60;50.85;98186.19;6270318;22;20225;-57
2022/05/14 07:57:20;;;;;;;11.57;6.80;;;;;;;24.62;50.93;98186.81;6268690;22;20176;-57
2022/05/14 07:59:45;;;;;;;11.05;6.22;;;;;;;24.74;50.28;98189.72;6270023;22;21026;-57
2022/05/14 08:02:31;;;;;;;9.07;6.35;;;;;;;24.83;50.19;98189.31;6269825;22;20167;-56
2022/05/14 08:04:57;;;;;;;12.20;6.97;;;;;;;24.89;50.02;98183.22;6270344;22;20143;-57
2022/05/14 08:07:22;;;;;;;7.40;6.00;;;;;;;24.96;50.03;98186.69;6262492;22;20602;-57
2022/05/14 08:09:48;;;;;;;11.32;6.40;;;;;;;25.12;49.67;98181.03;6257196;22;20176;-57
2022/05/14 08:12:13;;;;;;;12.23;6.70;;;;;;;25.29;50.27;98190.25;6259849;22;20166;-57
2022/05/14 08:14:42;;;;;;;16.92;7.38;;;;;;;25.44;50.12;98190.06;6269527;22;20148;-57
2022/05/14 08:17:09;;;;;;;11.20;7.10;;;;;;;25.62;49.68;98192.91;6268222;22;20248;-57
2022/05/14 08:19:35;;;;;;;13.68;7.63;;;;;;;25.76;49.21;98194.50;6269808;22;20206;-57
2022/05/14 08:24:44;;;;;;;14.20;7.38;;;;;;;25.87;49.26;98207.16;6269576;22;20213;-57
2022/05/14 08:27:11;;;;;;;8.82;6.28;;;;;;;25.92;49.20;98197.59;6270022;22;20235;-57
2022/05/14 08:29:37;;;;;;;7.47;6.25;;;;;;;25.94;48.81;98195.53;6256413;22;20155;-57
2022/05/14 08:32:04;;;;;;;8.20;5.72;;;;;;;26.01;48.90;98206.94;6257176;22;20442;-57
2022/05/14 08:34:31;;;;;;;8.25;6.15;;;;;;;25.97;48.97;98208.41;6265026;22;20178;-57
2022/05/14 08:36:57;;;;;;;6.95;5.90;;;;;;;26.00;48.91;98215.13;6267939;22;20183;-57
2022/05/14 08:39:23;;;;;;;10.60;5.45;;;;;;;25.99;49.18;98218.78;6269738;22;20675;-57
2022/05/14 08:41:52;;;;;;;6.85;5.65;;;;;;;25.93;49.30;98209.81;6269969;22;20144;-57
2022/05/14 08:44:27;;;;;;;9.25;5.75;;;;;;;25.86;49.50;98213.47;6269740;22;20574;-57
2022/05/14 08:46:57;;;;;;;10.68;6.35;;;;;;;25.81;49.46;98216.75;6269745;22;20157;-57
2022/05/14 08:49:38;;;;;;;12.18;5.80;;;;;;;25.79;50.39;98218.81;6261434;22;20480;-57
2022/05/14 08:52:13;;;;;;;13.07;6.03;;;;;;;25.75;50.65;98219.38;6256903;22;20633;-57
2022/05/14 08:54:40;;;;;;;8.27;5.40;;;;;;;25.80;50.96;98228.38;6260671;22;20166;-57
2022/05/14 08:57:28;;;;;;;6.53;5.95;;;;;;;25.76;51.17;98229.81;6269525;22;20700;-57
2022/05/14 08:59:56;;;;;;;8.52;5.65;;;;;;;25.72;51.44;98236.53;6269913;22;20671;-57
2022/05/14 09:02:29;;;;;;;10.25;5.30;;;;;;;25.77;50.95;98244.69;6269629;22;20642;-57
2022/05/14 09:05:19;;;;;;;9.52;5.38;;;;;;;25.82;50.08;98254.66;6269660;22;20227;-57
2022/05/14 09:07:45;;;;;;;5.90;5.22;;;;;;;25.83;48.99;98261.63;6269032;22;20148;-57
2022/05/14 09:10:30;;;;;;;10.23;4.78;;;;;;;25.76;48.26;98256.31;6264732;22;20152;-57
2022/05/14 09:13:00;;;;;;;7.25;4.90;;;;;;;25.75;48.83;98265.28;6256418;22;20143;-57
2022/05/14 09:15:32;;;;;;;5.38;4.85;;;;;;;25.68;49.83;98271.59;6259265;22;20147;-57
2022/05/14 09:18:13;;;;;;;11.13;5.22;;;;;;;25.65;49.59;98274.66;6269220;22;20569;-58
2022/05/14 09:20:56;;;;;;;5.97;5.45;;;;;;;25.57;49.08;98278.31;6269619;22;20152;-58
2022/05/14 09:23:43;;;;;;;8.35;5.60;;;;;;;25.52;49.79;98270.16;6269418;22;20132;-57
2022/05/14 09:26:25;;;;;;;8.45;5.55;;;;;;;25.43;49.99;98274.00;6269606;22;20160;-56
2022/05/14 09:28:54;;;;;;;11.13;6.20;;;;;;;25.38;50.75;98273.78;6269352;22;20159;-56
2022/05/14 09:31:25;;;;;;;8.65;5.38;;;;;;;25.35;51.27;98276.88;6264103;22;20659;-56
2022/05/14 09:34:00;;;;;;;12.50;5.60;;;;;;;25.31;52.13;98272.19;6255451;22;20807;-56
2022/05/14 09:36:28;;;;;;;10.85;5.30;;;;;;;25.26;52.34;98272.75;6258856;22;20171;-57
2022/05/14 09:39:10;;;;;;;10.10;6.60;;;;;;;25.16;52.93;98268.84;6269260;22;20223;-57
2022/05/14 09:41:42;;;;;;;9.70;6.00;;;;;;;25.10;54.01;98262.53;6269090;22;20571;-57
2022/05/14 09:44:15;;;;;;;17.65;5.80;;;;;;;25.13;54.35;98264.75;6269830;22;20194;-57
2022/05/14 09:46:40;;;;;;;12.35;6.07;;;;;;;25.15;54.81;98267.22;6269356;22;20136;-57
2022/05/14 09:49:08;;;;;;;9.90;5.72;;;;;;;25.15;54.91;98269.84;6268956;22;20151;-57
2022/05/14 09:51:35;;;;;;;8.50;5.47;;;;;;;25.17;55.47;98275.75;6269306;22;20601;-57
2022/05/14 09:54:27;;;;;;;9.73;5.57;;;;;;;25.25;55.67;98278.28;6255030;22;20163;-56
2022/05/14 09:56:56;;;;;;;10.68;5.85;;;;;;;25.35;55.36;98282.16;6257536;22;20171;-56
2022/05/14 09:59:56;;;;;;;9.20;5.80;;;;;;;25.43;54.70;98287.25;6266739;22;20148;-56
2022/05/14 10:02:45;;;;;;;11.65;5.85;;;;;;;25.53;54.22;98286.88;6268795;22;20194;-57
2022/05/14 10:05:29;;;;;;;11.35;6.25;;;;;;;25.54;53.28;98299.13;6269322;22;20586;-56
2022/05/14 10:08:01;;;;;;;6.82;5.32;;;;;;;25.48;53.86;98287.47;6269250;22;20132;-57
2022/05/14 10:10:40;;;;;;;9.05;5.88;;;;;;;25.61;53.92;98298.09;6269486;22;20561;-57
2022/05/14 10:13:35;;;;;;;15.75;6.30;;;;;;;25.69;53.70;98289.13;6264710;22;20147;-57
2022/05/14 10:16:10;;;;;;;10.50;5.55;;;;;;;25.69;53.92;98282.00;6255534;22;20732;-57
2022/05/14 10:19:07;;;;;;;8.98;5.70;;;;;;;25.60;52.90;98269.16;6258298;22;20170;-57
2022/05/14 10:21:57;;;;;;;8.15;5.43;;;;;;;25.49;53.09;98270.56;6234109;22;20205;-57
2022/05/14 10:27:45;;;;;;;10.10;5.22;;;;;;;25.46;53.32;98268.31;6268970;22;20170;-57
2022/05/14 10:30:16;;;;;;;6.32;4.78;;;;;;;25.40;54.61;98268.31;6268907;22;20140;-57
2022/05/14 10:32:43;;;;;;;9.40;5.53;;;;;;;25.43;54.69;98266.06;6269345;22;20164;-57
2022/05/14 10:35:21;;;;;;;7.32;5.72;;;;;;;25.49;55.30;98270.56;6259610;22;20183;-57
2022/05/14 10:37:57;;;;;;;6.13;5.53;;;;;;;25.62;55.40;98264.47;6256831;22;20164;-57
2022/05/14 10:40:37;;;;;;;6.68;6.03;;;;;;;25.75;54.21;98262.63;6260201;22;20155;-57
2022/05/14 10:43:24;;;;;;;13.15;5.65;;;;;;;26.05;54.72;98260.38;6268306;22;20558;-57
2022/05/14 10:45:54;;;;;;;7.80;5.32;;;;;;;26.29;53.42;98265.06;6270839;22;20147;-57
2022/05/14 10:48:33;;;;;;;8.75;5.43;;;;;;;26.43;52.93;98279.94;6271319;22;20163;-57
2022/05/14 10:51:05;;;;;;;4.88;4.30;;;;;;;26.47;49.67;98279.28;6271002;22;20151;-57
2022/05/14 10:53:31;;;;;;;4.50;4.10;;;;;;;26.60;47.28;98271.31;6270872;22;20279;-57
2022/05/14 10:56:03;;;;;;;6.82;4.35;;;;;;;26.60;46.88;98266.00;6262834;22;20472;-57
2022/05/14 10:58:58;;;;;;;4.22;3.50;;;;;;;26.96;44.18;98284.88;6258610;22;20206;-57
2022/05/14 11:01:26;;;;;;;5.88;3.17;;;;;;;27.21;45.21;98280.50;6264274;22;20158;-57
2022/05/14 11:04:18;;;;;;;8.52;5.30;;;;;;;27.43;48.80;98276.47;6270833;22;20491;-57
2022/05/14 11:06:58;;;;;;;5.68;4.88;;;;;;;27.76;49.03;98281.56;6270770;22;20215;-57
2022/05/14 11:09:46;;;;;;;5.72;4.55;;;;;;;27.92;48.73;98276.53;6270721;22;20231;-57
2022/05/14 11:12:31;;;;;;;8.80;4.97;;;;;;;28.20;47.50;98271.56;6270903;22;20144;-57
2022/05/14 11:14:59;;;;;;;5.55;4.72;;;;;;;28.32;47.53;98275.13;6269013;22;20143;-57
2022/05/14 11:17:26;;;;;;;4.70;4.30;;;;;;;28.43;45.75;98268.28;6259533;22;20872;-57
2022/05/14 11:20:06;;;;;;;4.05;2.97;;;;;;;28.49;43.10;98259.41;6255451;22;20385;-57
2022/05/14 11:22:57;;;;;;;5.10;2.53;;;;;;;28.51;40.34;98273.34;6264578;22;20508;-57
2022/05/14 11:25:26;;;;;;;3.17;2.35;;;;;;;28.53;39.89;98256.13;6269946;22;20160;-57
2022/05/14 11:28:19;;;;;;;3.30;3.00;;;;;;;28.58;39.99;98258.09;6270543;22;20223;-57
2022/05/14 11:30:48;;;;;;;4.85;3.55;;;;;;;28.72;41.93;98252.41;6270640;22;20177;-57
2022/05/14 11:33:31;;;;;;;5.82;3.60;;;;;;;28.92;43.46;98257.47;6270109;22;20148;-56
2022/05/14 11:36:16;;;;;;;10.00;4.45;;;;;;;29.07;44.78;98247.25;6270529;22;20159;-57
2022/05/14 11:38:45;;;;;;;5.07;3.95;;;;;;;29.14;44.74;98235.47;6258435;22;20164;-56
2022/05/14 11:41:14;;;;;;;13.55;4.50;;;;;;;29.20;44.89;98237.22;6257858;22;20166;-57
2022/05/14 11:43:42;;;;;;;6.93;3.80;;;;;;;29.23;44.11;98228.78;6264194;22;20159;-56
2022/05/14 11:46:26;;;;;;;7.82;4.13;;;;;;;29.40;44.39;98221.78;6270462;22;20156;-57
2022/05/14 11:49:03;;;;;;;13.90;5.22;;;;;;;29.57;43.80;98217.41;6270578;22;20156;-57
2022/05/14 11:51:38;;;;;;;8.02;4.22;;;;;;;29.79;42.71;98223.81;6270516;22;20135;-56
2022/05/14 11:54:14;;;;;;;4.88;3.95;;;;;;;29.92;42.08;98220.13;6269639;22;20146;-57
2022/05/14 11:56:57;;;;;;;8.45;4.50;;;;;;;29.96;42.62;98215.94;6270148;22;20266;-57
2022/05/14 11:59:41;;;;;;;4.35;3.35;;;;;;;30.05;42.09;98206.53;6260583;22;20545;-57